sensor_id;sensor_type;location;lat;lon;timestamp;P1;durP1;ratioP1;P2;durP2;ratioP2
7013;SDS011;3547;50.774;12.918;2023-02-28T00:00:23;2.80;;;2.33;;
7013;SDS011;3547;50.774;12.918;2023-02-28T00:02:49;2.47;;;2.27;;
7013;SDS011;3547;50.774;12.918;2023-02-28T00:05:16;3.57;;;2.07;;
7013;SDS011;3547;50.774;12.918;2023-02-28T00:07:45;2.57;;;2.23;;
7013;SDS011;3547;50.774;12.918;2023-02-28T00:10:13;3.47;;;2.80;;
7013;SDS011;3547;50.774;12.918;2023-02-28T00:12:44;5.37;;;2.70;;
7013;SDS011;3547;50.774;12.918;2023-02-28T00:15:10;3.13;;;2.43;;
7013;SDS011;3547;50.774;12.918;2023-02-28T00:17:37;3.03;;;2.03;;
7013;SDS011;3547;50.774;12.918;2023-02-28T00:20:04;4.33;;;2.60;;
7013;SDS011;3547;50.774;12.918;2023-02-28T00:22:33;3.20;;;2.17;;
7013;SDS011;3547;50.774;12.918;2023-02-28T00:25:00;4.57;;;2.90;;
7013;SDS011;3547;50.774;12.918;2023-02-28T00:27:26;3.87;;;2.77;;
7013;SDS011;3547;50.774;12.918;2023-02-28T00:29:52;3.80;;;2.50;;
7013;SDS011;3547;50.774;12.918;2023-02-28T00:32:19;3.40;;;2.70;;
7013;SDS011;3547;50.774;12.918;2023-02-28T00:34:45;3.57;;;2.73;;
7013;SDS011;3547;50.774;12.918;2023-02-28T00:37:11;3.30;;;2.23;;
7013;SDS011;3547;50.774;12.918;2023-02-28T00:39:38;2.90;;;2.57;;
7013;SDS011;3547;50.774;12.918;2023-02-28T00:42:05;2.80;;;2.20;;
7013;SDS011;3547;50.774;12.918;2023-02-28T00:44:32;3.10;;;2.60;;
7013;SDS011;3547;50.774;12.918;2023-02-28T00:46:58;3.17;;;2.20;;
7013;SDS011;3547;50.774;12.918;2023-02-28T00:49:25;5.73;;;2.77;;
7013;SDS011;3547;50.774;12.918;2023-02-28T00:51:52;3.40;;;2.33;;
7013;SDS011;3547;50.774;12.918;2023-02-28T00:54:22;2.57;;;2.37;;
7013;SDS011;3547;50.774;12.918;2023-02-28T00:56:49;10.80;;;2.50;;
7013;SDS011;3547;50.774;12.918;2023-02-28T00:59:16;4.03;;;2.00;;
7013;SDS011;3547;50.774;12.918;2023-02-28T01:01:43;4.17;;;2.30;;
7013;SDS011;3547;50.774;12.918;2023-02-28T01:04:10;3.37;;;2.60;;
7013;SDS011;3547;50.774;12.918;2023-02-28T01:06:36;5.30;;;2.30;;
7013;SDS011;3547;50.774;12.918;2023-02-28T01:09:03;4.33;;;2.60;;
7013;SDS011;3547;50.774;12.918;2023-02-28T01:11:31;3.10;;;2.10;;
7013;SDS011;3547;50.774;12.918;2023-02-28T01:13:57;5.33;;;2.40;;
7013;SDS011;3547;50.774;12.918;2023-02-28T01:16:24;2.27;;;2.07;;
7013;SDS011;3547;50.774;12.918;2023-02-28T01:18:50;3.33;;;2.30;;
7013;SDS011;3547;50.774;12.918;2023-02-28T01:21:17;3.97;;;2.60;;
7013;SDS011;3547;50.774;12.918;2023-02-28T01:23:45;3.23;;;2.30;;
7013;SDS011;3547;50.774;12.918;2023-02-28T01:26:12;3.70;;;2.30;;
7013;SDS011;3547;50.774;12.918;2023-02-28T01:28:40;3.07;;;2.13;;
7013;SDS011;3547;50.774;12.918;2023-02-28T01:31:07;2.87;;;1.97;;
7013;SDS011;3547;50.774;12.918;2023-02-28T01:33:35;2.77;;;2.20;;
7013;SDS011;3547;50.774;12.918;2023-02-28T01:36:17;3.03;;;2.03;;
7013;SDS011;3547;50.774;12.918;2023-02-28T01:38:45;3.63;;;2.37;;
7013;SDS011;3547;50.774;12.918;2023-02-28T01:41:17;4.93;;;2.50;;
7013;SDS011;3547;50.774;12.918;2023-02-28T01:46:12;2.70;;;2.43;;
7013;SDS011;3547;50.774;12.918;2023-02-28T01:48:40;2.73;;;2.30;;
7013;SDS011;3547;50.774;12.918;2023-02-28T01:51:39;2.60;;;1.90;;
7013;SDS011;3547;50.774;12.918;2023-02-28T01:54:16;2.80;;;2.20;;
7013;SDS011;3547;50.774;12.918;2023-02-28T01:56:48;5.13;;;2.20;;
7013;SDS011;3547;50.774;12.918;2023-02-28T01:59:33;3.33;;;2.23;;
7013;SDS011;3547;50.774;12.918;2023-02-28T02:02:05;3.30;;;1.87;;
7013;SDS011;3547;50.774;12.918;2023-02-28T02:04:34;4.00;;;2.37;;
7013;SDS011;3547;50.774;12.918;2023-02-28T02:07:05;4.27;;;2.30;;
7013;SDS011;3547;50.774;12.918;2023-02-28T02:09:32;4.00;;;2.40;;
7013;SDS011;3547;50.774;12.918;2023-02-28T02:11:58;3.37;;;2.57;;
7013;SDS011;3547;50.774;12.918;2023-02-28T02:14:35;3.50;;;2.10;;
7013;SDS011;3547;50.774;12.918;2023-02-28T02:17:40;4.10;;;2.70;;
7013;SDS011;3547;50.774;12.918;2023-02-28T02:25:58;3.20;;;2.00;;
7013;SDS011;3547;50.774;12.918;2023-02-28T02:42:19;3.73;;;2.37;;
7013;SDS011;3547;50.774;12.918;2023-02-28T02:44:55;3.10;;;2.50;;
7013;SDS011;3547;50.774;12.918;2023-02-28T02:47:35;4.33;;;2.30;;
7013;SDS011;3547;50.774;12.918;2023-02-28T02:50:05;3.33;;;2.50;;
7013;SDS011;3547;50.774;12.918;2023-02-28T02:52:38;3.83;;;2.67;;
7013;SDS011;3547;50.774;12.918;2023-02-28T02:55:12;3.53;;;2.13;;
7013;SDS011;3547;50.774;12.918;2023-02-28T02:57:45;3.63;;;2.30;;
7013;SDS011;3547;50.774;12.918;2023-02-28T03:00:12;3.73;;;2.90;;
7013;SDS011;3547;50.774;12.918;2023-02-28T03:02:45;3.93;;;2.70;;
7013;SDS011;3547;50.774;12.918;2023-02-28T03:05:19;4.57;;;2.90;;
7013;SDS011;3547;50.774;12.918;2023-02-28T03:07:49;4.83;;;2.70;;
7013;SDS011;3547;50.774;12.918;2023-02-28T03:10:35;4.00;;;2.93;;
7013;SDS011;3547;50.774;12.918;2023-02-28T03:15:58;4.27;;;3.10;;
7013;SDS011;3547;50.774;12.918;2023-02-28T03:18:54;7.07;;;3.80;;
7013;SDS011;3547;50.774;12.918;2023-02-28T03:21:46;4.40;;;3.07;;
7013;SDS011;3547;50.774;12.918;2023-02-28T03:27:13;4.87;;;3.30;;
7013;SDS011;3547;50.774;12.918;2023-02-28T03:29:51;6.33;;;3.17;;
7013;SDS011;3547;50.774;12.918;2023-02-28T03:32:45;3.93;;;3.23;;
7013;SDS011;3547;50.774;12.918;2023-02-28T03:35:22;4.77;;;2.67;;
7013;SDS011;3547;50.774;12.918;2023-02-28T03:38:03;3.43;;;3.10;;
7013;SDS011;3547;50.774;12.918;2023-02-28T03:40:39;4.53;;;2.77;;
7013;SDS011;3547;50.774;12.918;2023-02-28T03:43:10;3.57;;;2.67;;
7013;SDS011;3547;50.774;12.918;2023-02-28T03:45:42;5.23;;;3.23;;
7013;SDS011;3547;50.774;12.918;2023-02-28T03:48:32;5.17;;;2.97;;
7013;SDS011;3547;50.774;12.918;2023-02-28T03:51:00;4.43;;;2.87;;
7013;SDS011;3547;50.774;12.918;2023-02-28T03:56:09;4.90;;;3.33;;
7013;SDS011;3547;50.774;12.918;2023-02-28T03:58:42;3.90;;;2.70;;
7013;SDS011;3547;50.774;12.918;2023-02-28T04:01:28;6.57;;;3.30;;
7013;SDS011;3547;50.774;12.918;2023-02-28T04:04:10;6.07;;;3.20;;
7013;SDS011;3547;50.774;12.918;2023-02-28T04:06:38;4.07;;;2.93;;
7013;SDS011;3547;50.774;12.918;2023-02-28T04:09:04;5.07;;;3.13;;
7013;SDS011;3547;50.774;12.918;2023-02-28T04:11:38;4.10;;;3.23;;
7013;SDS011;3547;50.774;12.918;2023-02-28T04:14:06;7.13;;;2.63;;
7013;SDS011;3547;50.774;12.918;2023-02-28T04:16:33;6.23;;;2.90;;
7013;SDS011;3547;50.774;12.918;2023-02-28T04:19:02;4.53;;;3.20;;
7013;SDS011;3547;50.774;12.918;2023-02-28T04:21:31;4.07;;;2.87;;
7013;SDS011;3547;50.774;12.918;2023-02-28T04:23:58;3.70;;;2.93;;
7013;SDS011;3547;50.774;12.918;2023-02-28T04:26:29;5.87;;;2.97;;
7013;SDS011;3547;50.774;12.918;2023-02-28T04:28:56;6.47;;;3.27;;
7013;SDS011;3547;50.774;12.918;2023-02-28T04:31:22;5.53;;;3.30;;
7013;SDS011;3547;50.774;12.918;2023-02-28T04:33:48;3.57;;;2.70;;
7013;SDS011;3547;50.774;12.918;2023-02-28T04:36:16;4.30;;;3.23;;
7013;SDS011;3547;50.774;12.918;2023-02-28T04:38:46;3.93;;;2.90;;
7013;SDS011;3547;50.774;12.918;2023-02-28T04:41:12;4.30;;;3.13;;
7013;SDS011;3547;50.774;12.918;2023-02-28T04:43:40;4.47;;;2.93;;
7013;SDS011;3547;50.774;12.918;2023-02-28T04:46:06;4.13;;;3.10;;
7013;SDS011;3547;50.774;12.918;2023-02-28T04:48:34;6.30;;;3.43;;
7013;SDS011;3547;50.774;12.918;2023-02-28T04:51:06;3.63;;;2.90;;
7013;SDS011;3547;50.774;12.918;2023-02-28T04:53:35;5.77;;;3.57;;
7013;SDS011;3547;50.774;12.918;2023-02-28T04:56:02;5.60;;;3.90;;
7013;SDS011;3547;50.774;12.918;2023-02-28T04:58:28;6.30;;;3.80;;
7013;SDS011;3547;50.774;12.918;2023-02-28T05:01:01;4.63;;;3.27;;
7013;SDS011;3547;50.774;12.918;2023-02-28T05:03:29;4.63;;;3.47;;
7013;SDS011;3547;50.774;12.918;2023-02-28T05:05:55;4.77;;;3.50;;
7013;SDS011;3547;50.774;12.918;2023-02-28T05:08:21;6.63;;;3.93;;
7013;SDS011;3547;50.774;12.918;2023-02-28T05:10:47;4.83;;;3.67;;
7013;SDS011;3547;50.774;12.918;2023-02-28T05:13:13;4.33;;;3.53;;
7013;SDS011;3547;50.774;12.918;2023-02-28T05:15:40;7.00;;;4.73;;
7013;SDS011;3547;50.774;12.918;2023-02-28T05:18:07;8.67;;;5.50;;
7013;SDS011;3547;50.774;12.918;2023-02-28T05:20:34;7.23;;;5.47;;
7013;SDS011;3547;50.774;12.918;2023-02-28T05:23:00;9.13;;;5.53;;
7013;SDS011;3547;50.774;12.918;2023-02-28T05:25:27;9.90;;;6.90;;
7013;SDS011;3547;50.774;12.918;2023-02-28T05:27:53;7.87;;;5.77;;
7013;SDS011;3547;50.774;12.918;2023-02-28T05:30:19;8.57;;;4.97;;
7013;SDS011;3547;50.774;12.918;2023-02-28T05:32:49;5.63;;;3.23;;
7013;SDS011;3547;50.774;12.918;2023-02-28T05:35:16;6.60;;;3.87;;
7013;SDS011;3547;50.774;12.918;2023-02-28T05:37:42;5.53;;;4.30;;
7013;SDS011;3547;50.774;12.918;2023-02-28T05:40:09;6.07;;;4.37;;
7013;SDS011;3547;50.774;12.918;2023-02-28T05:42:36;7.40;;;4.93;;
7013;SDS011;3547;50.774;12.918;2023-02-28T05:45:03;8.77;;;4.03;;
7013;SDS011;3547;50.774;12.918;2023-02-28T05:47:30;6.80;;;4.50;;
7013;SDS011;3547;50.774;12.918;2023-02-28T05:49:56;6.77;;;3.93;;
7013;SDS011;3547;50.774;12.918;2023-02-28T05:52:22;7.60;;;4.70;;
7013;SDS011;3547;50.774;12.918;2023-02-28T05:54:48;6.07;;;4.50;;
7013;SDS011;3547;50.774;12.918;2023-02-28T05:57:15;7.73;;;4.53;;
7013;SDS011;3547;50.774;12.918;2023-02-28T05:59:41;7.27;;;4.20;;
7013;SDS011;3547;50.774;12.918;2023-02-28T06:02:10;9.77;;;4.13;;
7013;SDS011;3547;50.774;12.918;2023-02-28T06:04:38;5.63;;;3.90;;
7013;SDS011;3547;50.774;12.918;2023-02-28T06:07:06;5.90;;;4.80;;
7013;SDS011;3547;50.774;12.918;2023-02-28T06:09:33;7.03;;;4.90;;
7013;SDS011;3547;50.774;12.918;2023-02-28T06:11:59;8.60;;;4.87;;
7013;SDS011;3547;50.774;12.918;2023-02-28T06:14:29;7.77;;;4.43;;
7013;SDS011;3547;50.774;12.918;2023-02-28T06:16:56;8.30;;;4.67;;
7013;SDS011;3547;50.774;12.918;2023-02-28T06:19:23;7.63;;;4.97;;
7013;SDS011;3547;50.774;12.918;2023-02-28T06:21:53;8.40;;;4.80;;
7013;SDS011;3547;50.774;12.918;2023-02-28T06:24:21;6.53;;;4.70;;
7013;SDS011;3547;50.774;12.918;2023-02-28T06:26:48;9.37;;;5.33;;
7013;SDS011;3547;50.774;12.918;2023-02-28T06:29:14;7.00;;;4.90;;
7013;SDS011;3547;50.774;12.918;2023-02-28T06:31:44;6.83;;;5.07;;
7013;SDS011;3547;50.774;12.918;2023-02-28T06:34:11;7.40;;;4.87;;
7013;SDS011;3547;50.774;12.918;2023-02-28T06:36:39;9.93;;;5.80;;
7013;SDS011;3547;50.774;12.918;2023-02-28T06:39:06;8.77;;;5.70;;
7013;SDS011;3547;50.774;12.918;2023-02-28T06:41:33;7.43;;;4.93;;
7013;SDS011;3547;50.774;12.918;2023-02-28T06:44:13;12.00;;;6.23;;
7013;SDS011;3547;50.774;12.918;2023-02-28T06:46:41;8.37;;;5.50;;
7013;SDS011;3547;50.774;12.918;2023-02-28T06:49:09;8.03;;;5.50;;
7013;SDS011;3547;50.774;12.918;2023-02-28T06:51:36;8.37;;;5.47;;
7013;SDS011;3547;50.774;12.918;2023-02-28T06:54:04;8.63;;;5.43;;
7013;SDS011;3547;50.774;12.918;2023-02-28T06:56:34;8.77;;;5.27;;
7013;SDS011;3547;50.774;12.918;2023-02-28T06:59:01;10.20;;;5.13;;
7013;SDS011;3547;50.774;12.918;2023-02-28T07:01:28;9.13;;;5.60;;
7013;SDS011;3547;50.774;12.918;2023-02-28T07:03:54;8.97;;;4.87;;
7013;SDS011;3547;50.774;12.918;2023-02-28T07:06:21;6.97;;;5.00;;
7013;SDS011;3547;50.774;12.918;2023-02-28T07:08:49;5.80;;;4.77;;
7013;SDS011;3547;50.774;12.918;2023-02-28T07:11:16;8.63;;;5.43;;
7013;SDS011;3547;50.774;12.918;2023-02-28T07:13:42;8.23;;;5.43;;
7013;SDS011;3547;50.774;12.918;2023-02-28T07:16:09;7.47;;;5.37;;
7013;SDS011;3547;50.774;12.918;2023-02-28T07:18:36;8.97;;;5.13;;
7013;SDS011;3547;50.774;12.918;2023-02-28T07:21:04;9.20;;;4.93;;
7013;SDS011;3547;50.774;12.918;2023-02-28T07:23:32;7.57;;;5.33;;
7013;SDS011;3547;50.774;12.918;2023-02-28T07:25:58;9.70;;;5.47;;
7013;SDS011;3547;50.774;12.918;2023-02-28T07:28:25;7.50;;;5.23;;
7013;SDS011;3547;50.774;12.918;2023-02-28T07:30:51;8.50;;;5.43;;
7013;SDS011;3547;50.774;12.918;2023-02-28T07:33:17;10.87;;;6.23;;
7013;SDS011;3547;50.774;12.918;2023-02-28T07:35:43;8.57;;;5.43;;
7013;SDS011;3547;50.774;12.918;2023-02-28T07:38:10;11.30;;;5.70;;
7013;SDS011;3547;50.774;12.918;2023-02-28T07:40:36;8.60;;;5.60;;
7013;SDS011;3547;50.774;12.918;2023-02-28T07:43:03;8.27;;;5.10;;
7013;SDS011;3547;50.774;12.918;2023-02-28T07:45:29;7.47;;;5.47;;
7013;SDS011;3547;50.774;12.918;2023-02-28T07:47:57;8.13;;;5.10;;
7013;SDS011;3547;50.774;12.918;2023-02-28T07:50:23;7.17;;;4.17;;
7013;SDS011;3547;50.774;12.918;2023-02-28T07:52:49;10.27;;;5.13;;
7013;SDS011;3547;50.774;12.918;2023-02-28T07:55:15;7.10;;;4.63;;
7013;SDS011;3547;50.774;12.918;2023-02-28T07:57:42;9.30;;;4.97;;
7013;SDS011;3547;50.774;12.918;2023-02-28T08:00:09;8.73;;;4.90;;
7013;SDS011;3547;50.774;12.918;2023-02-28T08:02:36;7.77;;;4.27;;
7013;SDS011;3547;50.774;12.918;2023-02-28T08:05:02;9.43;;;4.90;;
7013;SDS011;3547;50.774;12.918;2023-02-28T08:07:28;5.07;;;4.30;;
7013;SDS011;3547;50.774;12.918;2023-02-28T08:09:56;8.87;;;4.40;;
7013;SDS011;3547;50.774;12.918;2023-02-28T08:12:22;5.63;;;3.67;;
7013;SDS011;3547;50.774;12.918;2023-02-28T08:14:48;7.20;;;4.10;;
7013;SDS011;3547;50.774;12.918;2023-02-28T08:17:14;6.97;;;4.00;;
7013;SDS011;3547;50.774;12.918;2023-02-28T08:19:40;5.40;;;3.80;;
7013;SDS011;3547;50.774;12.918;2023-02-28T08:22:06;5.70;;;3.90;;
7013;SDS011;3547;50.774;12.918;2023-02-28T08:24:33;5.23;;;4.00;;
7013;SDS011;3547;50.774;12.918;2023-02-28T08:26:59;6.47;;;3.70;;
7013;SDS011;3547;50.774;12.918;2023-02-28T08:29:25;6.37;;;3.90;;
7013;SDS011;3547;50.774;12.918;2023-02-28T08:31:51;6.13;;;4.47;;
7013;SDS011;3547;50.774;12.918;2023-02-28T08:34:17;10.33;;;4.50;;
7013;SDS011;3547;50.774;12.918;2023-02-28T08:36:44;4.90;;;3.50;;
7013;SDS011;3547;50.774;12.918;2023-02-28T08:39:10;4.23;;;3.33;;
7013;SDS011;3547;50.774;12.918;2023-02-28T08:41:37;9.20;;;4.60;;
7013;SDS011;3547;50.774;12.918;2023-02-28T08:44:03;6.93;;;4.30;;
7013;SDS011;3547;50.774;12.918;2023-02-28T08:46:29;6.50;;;3.83;;
7013;SDS011;3547;50.774;12.918;2023-02-28T08:48:56;3.87;;;3.23;;
7013;SDS011;3547;50.774;12.918;2023-02-28T08:51:27;6.67;;;3.40;;
7013;SDS011;3547;50.774;12.918;2023-02-28T08:53:58;6.13;;;3.97;;
7013;SDS011;3547;50.774;12.918;2023-02-28T08:56:26;6.13;;;4.20;;
7013;SDS011;3547;50.774;12.918;2023-02-28T08:58:54;7.67;;;4.20;;
7013;SDS011;3547;50.774;12.918;2023-02-28T09:01:22;7.70;;;4.27;;
7013;SDS011;3547;50.774;12.918;2023-02-28T09:03:52;10.00;;;4.30;;
7013;SDS011;3547;50.774;12.918;2023-02-28T09:06:19;6.33;;;4.57;;
7013;SDS011;3547;50.774;12.918;2023-02-28T09:08:47;5.90;;;4.23;;
7013;SDS011;3547;50.774;12.918;2023-02-28T09:11:13;5.03;;;3.63;;
7013;SDS011;3547;50.774;12.918;2023-02-28T09:13:40;5.60;;;3.50;;
7013;SDS011;3547;50.774;12.918;2023-02-28T09:16:07;4.63;;;4.00;;
7013;SDS011;3547;50.774;12.918;2023-02-28T09:18:36;4.57;;;3.77;;
7013;SDS011;3547;50.774;12.918;2023-02-28T09:21:04;5.97;;;3.67;;
7013;SDS011;3547;50.774;12.918;2023-02-28T09:23:31;6.13;;;3.90;;
7013;SDS011;3547;50.774;12.918;2023-02-28T09:25:57;5.27;;;4.20;;
7013;SDS011;3547;50.774;12.918;2023-02-28T09:28:23;6.33;;;3.83;;
7013;SDS011;3547;50.774;12.918;2023-02-28T09:30:51;6.77;;;3.73;;
7013;SDS011;3547;50.774;12.918;2023-02-28T09:33:19;5.10;;;3.50;;
7013;SDS011;3547;50.774;12.918;2023-02-28T09:35:47;4.43;;;3.80;;
7013;SDS011;3547;50.774;12.918;2023-02-28T09:38:13;6.73;;;4.13;;
7013;SDS011;3547;50.774;12.918;2023-02-28T09:40:49;4.97;;;3.37;;
7013;SDS011;3547;50.774;12.918;2023-02-28T09:43:17;5.77;;;3.33;;
7013;SDS011;3547;50.774;12.918;2023-02-28T09:45:59;6.50;;;3.97;;
7013;SDS011;3547;50.774;12.918;2023-02-28T09:48:33;6.60;;;4.00;;
7013;SDS011;3547;50.774;12.918;2023-02-28T09:51:04;4.20;;;3.10;;
7013;SDS011;3547;50.774;12.918;2023-02-28T09:53:38;7.00;;;3.23;;
7013;SDS011;3547;50.774;12.918;2023-02-28T09:56:09;5.17;;;3.67;;
7013;SDS011;3547;50.774;12.918;2023-02-28T09:58:45;5.93;;;4.00;;
7013;SDS011;3547;50.774;12.918;2023-02-28T10:03:57;5.03;;;3.60;;
7013;SDS011;3547;50.774;12.918;2023-02-28T10:06:29;6.20;;;3.97;;
7013;SDS011;3547;50.774;12.918;2023-02-28T10:09:03;6.90;;;3.50;;
7013;SDS011;3547;50.774;12.918;2023-02-28T10:11:35;5.20;;;3.50;;
7013;SDS011;3547;50.774;12.918;2023-02-28T10:14:04;4.13;;;3.47;;
7013;SDS011;3547;50.774;12.918;2023-02-28T10:16:48;6.30;;;4.07;;
7013;SDS011;3547;50.774;12.918;2023-02-28T10:22:05;4.30;;;3.50;;
7013;SDS011;3547;50.774;12.918;2023-02-28T10:24:53;4.23;;;3.30;;
7013;SDS011;3547;50.774;12.918;2023-02-28T10:27:22;5.37;;;3.70;;
7013;SDS011;3547;50.774;12.918;2023-02-28T10:29:51;5.20;;;3.63;;
7013;SDS011;3547;50.774;12.918;2023-02-28T10:32:23;5.67;;;3.60;;
7013;SDS011;3547;50.774;12.918;2023-02-28T10:34:58;5.57;;;3.73;;
7013;SDS011;3547;50.774;12.918;2023-02-28T10:37:32;5.67;;;3.67;;
7013;SDS011;3547;50.774;12.918;2023-02-28T10:40:03;6.47;;;3.40;;
7013;SDS011;3547;50.774;12.918;2023-02-28T10:43:01;6.57;;;3.87;;
7013;SDS011;3547;50.774;12.918;2023-02-28T10:46:32;6.73;;;4.00;;
7013;SDS011;3547;50.774;12.918;2023-02-28T10:51:02;6.23;;;4.43;;
7013;SDS011;3547;50.774;12.918;2023-02-28T10:53:31;6.83;;;4.07;;
7013;SDS011;3547;50.774;12.918;2023-02-28T10:56:23;4.87;;;3.73;;
7013;SDS011;3547;50.774;12.918;2023-02-28T10:58:57;4.93;;;3.60;;
7013;SDS011;3547;50.774;12.918;2023-02-28T11:01:25;4.83;;;3.60;;
7013;SDS011;3547;50.774;12.918;2023-02-28T11:06:58;4.70;;;3.53;;
7013;SDS011;3547;50.774;12.918;2023-02-28T11:09:44;7.03;;;4.07;;
7013;SDS011;3547;50.774;12.918;2023-02-28T11:12:20;6.80;;;4.27;;
7013;SDS011;3547;50.774;12.918;2023-02-28T11:14:49;7.07;;;4.07;;
7013;SDS011;3547;50.774;12.918;2023-02-28T11:17:19;7.10;;;3.70;;
7013;SDS011;3547;50.774;12.918;2023-02-28T11:19:48;6.57;;;4.20;;
7013;SDS011;3547;50.774;12.918;2023-02-28T11:22:21;6.17;;;3.93;;
7013;SDS011;3547;50.774;12.918;2023-02-28T11:24:55;5.73;;;4.07;;
7013;SDS011;3547;50.774;12.918;2023-02-28T11:30:34;5.50;;;3.73;;
7013;SDS011;3547;50.774;12.918;2023-02-28T11:33:40;6.60;;;3.97;;
7013;SDS011;3547;50.774;12.918;2023-02-28T11:36:21;7.60;;;3.63;;
7013;SDS011;3547;50.774;12.918;2023-02-28T11:38:56;6.67;;;3.97;;
7013;SDS011;3547;50.774;12.918;2023-02-28T11:44:38;7.57;;;4.20;;
7013;SDS011;3547;50.774;12.918;2023-02-28T11:55:33;6.20;;;3.90;;
7013;SDS011;3547;50.774;12.918;2023-02-28T11:58:14;7.37;;;4.33;;
7013;SDS011;3547;50.774;12.918;2023-02-28T12:01:24;4.90;;;3.97;;
7013;SDS011;3547;50.774;12.918;2023-02-28T12:11:55;5.37;;;3.80;;
7013;SDS011;3547;50.774;12.918;2023-02-28T12:20:46;3.87;;;3.00;;
7013;SDS011;3547;50.774;12.918;2023-02-28T12:26:10;5.27;;;3.20;;
7013;SDS011;3547;50.774;12.918;2023-02-28T12:28:49;5.10;;;3.43;;
7013;SDS011;3547;50.774;12.918;2023-02-28T12:31:26;6.57;;;3.40;;
7013;SDS011;3547;50.774;12.918;2023-02-28T12:34:02;5.67;;;3.33;;
7013;SDS011;3547;50.774;12.918;2023-02-28T12:36:31;4.67;;;3.67;;
7013;SDS011;3547;50.774;12.918;2023-02-28T12:39:03;4.03;;;3.33;;
7013;SDS011;3547;50.774;12.918;2023-02-28T12:41:41;5.00;;;3.70;;
7013;SDS011;3547;50.774;12.918;2023-02-28T12:44:35;4.50;;;3.53;;
7013;SDS011;3547;50.774;12.918;2023-02-28T12:47:03;6.40;;;4.13;;
7013;SDS011;3547;50.774;12.918;2023-02-28T12:49:37;6.70;;;4.27;;
7013;SDS011;3547;50.774;12.918;2023-02-28T12:52:25;5.07;;;3.33;;
7013;SDS011;3547;50.774;12.918;2023-02-28T13:00:32;4.30;;;3.57;;
7013;SDS011;3547;50.774;12.918;2023-02-28T13:11:45;4.60;;;2.97;;
7013;SDS011;3547;50.774;12.918;2023-02-28T13:14:19;6.40;;;4.03;;
7013;SDS011;3547;50.774;12.918;2023-02-28T13:19:31;6.27;;;3.80;;
7013;SDS011;3547;50.774;12.918;2023-02-28T13:22:00;5.17;;;3.77;;
7013;SDS011;3547;50.774;12.918;2023-02-28T13:34:34;7.27;;;4.23;;
7013;SDS011;3547;50.774;12.918;2023-02-28T13:47:36;4.17;;;3.50;;
7013;SDS011;3547;50.774;12.918;2023-02-28T13:53:08;4.90;;;3.80;;
7013;SDS011;3547;50.774;12.918;2023-02-28T13:58:59;4.90;;;3.00;;
7013;SDS011;3547;50.774;12.918;2023-02-28T14:01:32;6.97;;;3.80;;
7013;SDS011;3547;50.774;12.918;2023-02-28T14:04:12;4.97;;;3.53;;
7013;SDS011;3547;50.774;12.918;2023-02-28T14:07:03;10.53;;;4.20;;
7013;SDS011;3547;50.774;12.918;2023-02-28T14:10:18;5.93;;;3.50;;
7013;SDS011;3547;50.774;12.918;2023-02-28T14:16:02;5.67;;;3.90;;
7013;SDS011;3547;50.774;12.918;2023-02-28T14:18:31;7.20;;;4.00;;
7013;SDS011;3547;50.774;12.918;2023-02-28T14:26:55;4.83;;;3.50;;
7013;SDS011;3547;50.774;12.918;2023-02-28T14:29:28;8.40;;;3.97;;
7013;SDS011;3547;50.774;12.918;2023-02-28T14:32:32;6.07;;;4.23;;
7013;SDS011;3547;50.774;12.918;2023-02-28T14:37:46;5.53;;;3.97;;
7013;SDS011;3547;50.774;12.918;2023-02-28T14:43:03;6.27;;;4.10;;
7013;SDS011;3547;50.774;12.918;2023-02-28T14:45:32;4.70;;;3.80;;
7013;SDS011;3547;50.774;12.918;2023-02-28T14:48:01;5.77;;;4.00;;
7013;SDS011;3547;50.774;12.918;2023-02-28T14:50:31;4.90;;;4.10;;
7013;SDS011;3547;50.774;12.918;2023-02-28T14:52:59;5.97;;;4.30;;
7013;SDS011;3547;50.774;12.918;2023-02-28T14:55:28;5.97;;;4.57;;
7013;SDS011;3547;50.774;12.918;2023-02-28T14:57:58;5.97;;;3.93;;
7013;SDS011;3547;50.774;12.918;2023-02-28T15:00:32;6.37;;;4.17;;
7013;SDS011;3547;50.774;12.918;2023-02-28T15:03:18;8.40;;;4.77;;
7013;SDS011;3547;50.774;12.918;2023-02-28T15:05:51;6.07;;;4.33;;
7013;SDS011;3547;50.774;12.918;2023-02-28T15:08:21;6.73;;;4.53;;
7013;SDS011;3547;50.774;12.918;2023-02-28T15:16:13;8.20;;;4.30;;
7013;SDS011;3547;50.774;12.918;2023-02-28T15:21:23;5.77;;;4.00;;
7013;SDS011;3547;50.774;12.918;2023-02-28T15:24:00;9.00;;;4.20;;
7013;SDS011;3547;50.774;12.918;2023-02-28T15:26:42;6.00;;;4.20;;
7013;SDS011;3547;50.774;12.918;2023-02-28T15:29:15;4.80;;;3.47;;
7013;SDS011;3547;50.774;12.918;2023-02-28T15:31:49;4.43;;;3.70;;
7013;SDS011;3547;50.774;12.918;2023-02-28T15:34:42;6.23;;;4.07;;
7013;SDS011;3547;50.774;12.918;2023-02-28T15:39:57;5.33;;;4.13;;
7013;SDS011;3547;50.774;12.918;2023-02-28T15:42:30;4.87;;;3.80;;
7013;SDS011;3547;50.774;12.918;2023-02-28T15:44:57;4.83;;;3.67;;
7013;SDS011;3547;50.774;12.918;2023-02-28T15:47:35;7.73;;;4.00;;
7013;SDS011;3547;50.774;12.918;2023-02-28T15:50:03;4.80;;;3.73;;
7013;SDS011;3547;50.774;12.918;2023-02-28T15:55:34;6.07;;;3.87;;
7013;SDS011;3547;50.774;12.918;2023-02-28T15:57:55;5.77;;;3.87;;
7013;SDS011;3547;50.774;12.918;2023-02-28T16:00:26;5.27;;;3.73;;
7013;SDS011;3547;50.774;12.918;2023-02-28T16:02:53;6.43;;;4.23;;
7013;SDS011;3547;50.774;12.918;2023-02-28T16:07:54;5.20;;;3.87;;
7013;SDS011;3547;50.774;12.918;2023-02-28T16:10:22;6.17;;;3.80;;
7013;SDS011;3547;50.774;12.918;2023-02-28T16:12:53;6.17;;;3.67;;
7013;SDS011;3547;50.774;12.918;2023-02-28T16:15:21;5.67;;;4.03;;
7013;SDS011;3547;50.774;12.918;2023-02-28T16:17:52;4.63;;;3.93;;
7013;SDS011;3547;50.774;12.918;2023-02-28T16:20:27;7.67;;;4.43;;
7013;SDS011;3547;50.774;12.918;2023-02-28T16:22:55;7.53;;;4.80;;
7013;SDS011;3547;50.774;12.918;2023-02-28T16:25:23;11.00;;;4.93;;
7013;SDS011;3547;50.774;12.918;2023-02-28T16:27:54;8.40;;;5.70;;
7013;SDS011;3547;50.774;12.918;2023-02-28T16:30:24;7.60;;;5.23;;
7013;SDS011;3547;50.774;12.918;2023-02-28T16:32:51;8.60;;;5.37;;
7013;SDS011;3547;50.774;12.918;2023-02-28T16:35:20;6.97;;;4.53;;
7013;SDS011;3547;50.774;12.918;2023-02-28T16:37:46;8.10;;;5.23;;
7013;SDS011;3547;50.774;12.918;2023-02-28T16:40:17;8.53;;;5.40;;
7013;SDS011;3547;50.774;12.918;2023-02-28T16:42:47;7.33;;;5.30;;
7013;SDS011;3547;50.774;12.918;2023-02-28T16:45:20;7.93;;;5.43;;
7013;SDS011;3547;50.774;12.918;2023-02-28T16:47:49;8.90;;;5.93;;
7013;SDS011;3547;50.774;12.918;2023-02-28T16:50:20;5.37;;;4.50;;
7013;SDS011;3547;50.774;12.918;2023-02-28T16:52:49;8.83;;;5.50;;
7013;SDS011;3547;50.774;12.918;2023-02-28T16:55:18;10.33;;;5.70;;
7013;SDS011;3547;50.774;12.918;2023-02-28T16:57:44;9.70;;;5.93;;
7013;SDS011;3547;50.774;12.918;2023-02-28T17:00:15;8.63;;;5.93;;
7013;SDS011;3547;50.774;12.918;2023-02-28T17:02:42;12.07;;;6.67;;
7013;SDS011;3547;50.774;12.918;2023-02-28T17:05:08;9.63;;;6.20;;
7013;SDS011;3547;50.774;12.918;2023-02-28T17:07:36;11.03;;;6.40;;
7013;SDS011;3547;50.774;12.918;2023-02-28T17:10:09;11.20;;;5.90;;
7013;SDS011;3547;50.774;12.918;2023-02-28T17:12:42;10.60;;;6.73;;
7013;SDS011;3547;50.774;12.918;2023-02-28T17:15:09;10.00;;;7.13;;
7013;SDS011;3547;50.774;12.918;2023-02-28T17:17:37;12.37;;;8.27;;
7013;SDS011;3547;50.774;12.918;2023-02-28T17:20:04;9.70;;;7.23;;
7013;SDS011;3547;50.774;12.918;2023-02-28T17:22:31;12.67;;;7.53;;
7013;SDS011;3547;50.774;12.918;2023-02-28T17:24:57;10.93;;;5.97;;
7013;SDS011;3547;50.774;12.918;2023-02-28T17:27:24;9.23;;;6.30;;
7013;SDS011;3547;50.774;12.918;2023-02-28T17:29:51;11.27;;;6.73;;
7013;SDS011;3547;50.774;12.918;2023-02-28T17:32:17;11.17;;;7.10;;
7013;SDS011;3547;50.774;12.918;2023-02-28T17:34:43;11.17;;;7.00;;
7013;SDS011;3547;50.774;12.918;2023-02-28T17:37:11;10.93;;;6.80;;
7013;SDS011;3547;50.774;12.918;2023-02-28T17:39:37;8.93;;;6.10;;
7013;SDS011;3547;50.774;12.918;2023-02-28T17:42:03;8.20;;;6.40;;
7013;SDS011;3547;50.774;12.918;2023-02-28T17:44:29;9.80;;;6.10;;
7013;SDS011;3547;50.774;12.918;2023-02-28T17:46:56;10.60;;;6.53;;
7013;SDS011;3547;50.774;12.918;2023-02-28T17:49:22;8.73;;;6.40;;